Time,TemperatureF,DewpointF,PressureIn,WindDirection,WindDirectionDegrees,WindSpeedMPH,WindSpeedGustMPH,Humidity,HourlyPrecipIn,Conditions,Clouds,dailyrainin,SoftwareType,DateUTC
2013-09-19 00:08:00,52.7,52.2,30.13,SW,225,0.0,-999.0,98,-99.99,,,0.00,Acu-Link.com,2013-09-19 04:08:00,
2013-09-19 00:23:00,52.3,51.8,30.13,SW,225,0.0,-999.0,98,-99.99,,,0.00,Acu-Link.com,2013-09-19 04:23:00,
2013-09-19 00:38:00,52.0,51.4,30.13,SW,225,0.0,-999.0,98,-99.99,,,0.00,Acu-Link.com,2013-09-19 04:38:00,
2013-09-19 00:53:00,51.6,51.1,30.13,West,270,0.0,-999.0,98,-99.99,,,0.00,Acu-Link.com,2013-09-19 04:53:00,
2013-09-19 01:08:00,51.3,50.7,30.13,SSW,202,0.0,-999.0,98,-99.99,,,0.00,Acu-Link.com,2013-09-19 05:08:00,
2013-09-19 01:24:00,50.7,50.2,30.14,SSW,202,0.0,-999.0,98,-99.99,,,0.00,Acu-Link.com,2013-09-19 05:24:00,
2013-09-19 01:39:00,50.5,50.0,30.14,SW,225,0.0,-999.0,98,-99.99,,,0.00,Acu-Link.com,2013-09-19 05:39:00,
2013-09-19 01:54:00,50.2,49.6,30.13,SW,225,0.0,-999.0,98,-99.99,,,0.00,Acu-Link.com,2013-09-19 05:54:00,
2013-09-19 02:09:00,49.8,49.3,30.13,SSW,202,0.0,-999.0,98,-99.99,,,0.00,Acu-Link.com,2013-09-19 06:09:00,
2013-09-19 02:24:00,49.5,48.9,30.13,SW,225,0.0,-999.0,98,-99.99,,,0.00,Acu-Link.com,2013-09-19 06:24:00,
2013-09-19 02:40:00,49.3,48.7,30.13,SW,225,0.0,-999.0,98,-99.99,,,0.00,Acu-Link.com,2013-09-19 06:40:00,
2013-09-19 02:55:00,48.9,48.4,30.12,SW,225,0.0,-999.0,98,-99.99,,,0.00,Acu-Link.com,2013-09-19 06:55:00,
2013-09-19 03:10:00,48.6,48.0,30.12,SW,225,0.0,-999.0,98,-99.99,,,0.00,Acu-Link.com,2013-09-19 07:10:00,
2013-09-19 03:25:00,48.4,47.8,30.12,SW,225,0.0,-999.0,98,-99.99,,,0.00,Acu-Link.com,2013-09-19 07:25:00,
2013-09-19 03:41:00,47.8,47.3,30.12,SW,225,0.0,-999.0,98,-99.99,,,0.00,Acu-Link.com,2013-09-19 07:41:00,
2013-09-19 03:56:00,47.8,47.3,30.12,WSW,247,0.0,-999.0,98,-99.99,,,0.00,Acu-Link.com,2013-09-19 07:56:00,
2013-09-19 04:12:00,47.7,47.1,30.12,WSW,247,0.0,-999.0,98,-99.99,,,0.00,Acu-Link.com,2013-09-19 08:12:00,
2013-09-19 04:27:00,47.5,46.9,30.11,West,270,0.0,-999.0,98,-99.99,,,0.00,Acu-Link.com,2013-09-19 08:27:00,
2013-09-19 04:42:00,48.2,47.7,30.11,West,270,0.0,-999.0,98,-99.99,,,0.00,Acu-Link.com,2013-09-19 08:42:00,
2013-09-19 04:57:00,47.8,47.3,30.11,SSW,202,0.0,-999.0,98,-99.99,,,0.00,Acu-Link.com,2013-09-19 08:57:00,
2013-09-19 05:12:00,47.1,46.6,30.11,SW,225,0.0,-999.0,98,-99.99,,,0.00,Acu-Link.com,2013-09-19 09:12:00,
2013-09-19 05:27:00,46.9,46.4,30.12,WSW,247,0.0,-999.0,98,-99.99,,,0.00,Acu-Link.com,2013-09-19 09:27:00,
2013-09-19 05:42:00,46.0,45.5,30.11,WSW,247,0.0,-999.0,98,-99.99,,,0.00,Acu-Link.com,2013-09-19 09:42:00,
2013-09-19 05:58:00,45.5,45.0,30.11,WSW,247,0.0,-999.0,98,-99.99,,,0.00,Acu-Link.com,2013-09-19 09:58:00,
2013-09-19 06:13:00,45.7,45.1,30.11,WSW,247,0.0,-999.0,98,-99.99,,,0.00,Acu-Link.com,2013-09-19 10:13:00,
2013-09-19 06:28:00,45.5,45.0,30.12,West,270,0.0,-999.0,98,-99.99,,,0.00,Acu-Link.com,2013-09-19 10:28:00,
2013-09-19 06:43:00,45.3,44.8,30.12,WSW,247,0.0,-999.0,98,-99.99,,,0.00,Acu-Link.com,2013-09-19 10:43:00,
2013-09-19 06:59:00,45.1,44.6,30.13,WSW,247,0.0,-999.0,98,-99.99,,,0.00,Acu-Link.com,2013-09-19 10:59:00,
2013-09-19 07:14:00,45.1,44.6,30.12,WSW,247,0.0,-999.0,98,-99.99,,,0.00,Acu-Link.com,2013-09-19 11:14:00,
2013-09-19 07:29:00,45.3,44.8,30.12,WSW,247,0.0,-999.0,98,-99.99,,,0.00,Acu-Link.com,2013-09-19 11:29:00,
2013-09-19 07:44:00,46.6,46.0,30.12,WSW,247,0.0,-999.0,98,-99.99,,,0.00,Acu-Link.com,2013-09-19 11:44:00,
2013-09-19 07:59:00,47.5,46.9,30.12,WSW,247,0.0,-999.0,98,-99.99,,,0.00,Acu-Link.com,2013-09-19 11:59:00,
2013-09-19 08:15:00,48.2,47.7,30.12,WSW,247,0.0,-999.0,98,-99.99,,,0.00,Acu-Link.com,2013-09-19 12:15:00,
2013-09-19 08:30:00,49.3,48.7,30.12,WSW,247,0.0,-999.0,98,-99.99,,,0.00,Acu-Link.com,2013-09-19 12:30:00,
2013-09-19 08:45:00,50.5,50.0,30.12,West,270,0.0,-999.0,98,-99.99,,,0.00,Acu-Link.com,2013-09-19 12:45:00,
2013-09-19 09:00:00,51.8,51.3,30.11,SW,225,0.0,-999.0,98,-99.99,,,0.00,Acu-Link.com,2013-09-19 13:00:00,
2013-09-19 09:15:00,53.1,52.5,30.11,South,180,0.0,-999.0,98,-99.99,,,0.00,Acu-Link.com,2013-09-19 13:15:00,
2013-09-19 09:31:00,54.5,53.9,30.12,South,180,0.0,-999.0,98,-99.99,,,0.00,Acu-Link.com,2013-09-19 13:31:00,
2013-09-19 09:46:00,55.9,55.4,30.12,South,180,0.0,-999.0,98,-99.99,,,0.00,Acu-Link.com,2013-09-19 13:46:00,
2013-09-19 10:01:00,57.6,57.0,30.12,SSE,157,0.0,-999.0,98,-99.99,,,0.00,Acu-Link.com,2013-09-19 14:01:00,
2013-09-19 10:16:00,59.2,58.6,30.12,SE,135,0.0,-999.0,98,-99.99,,,0.00,Acu-Link.com,2013-09-19 14:16:00,
2013-09-19 10:31:00,60.8,60.2,30.11,ESE,112,0.0,-999.0,98,-99.99,,,0.00,Acu-Link.com,2013-09-19 14:31:00,
2013-09-19 10:46:00,61.7,61.1,30.10,SSW,202,0.0,-999.0,98,-99.99,,,0.00,Acu-Link.com,2013-09-19 14:46:00,
2013-09-19 11:02:00,63.9,63.3,30.10,SSE,157,0.0,-999.0,98,-99.99,,,0.00,Acu-Link.com,2013-09-19 15:02:00,
2013-09-19 11:17:00,64.8,64.2,30.09,SE,135,0.0,-999.0,98,-99.99,,,0.00,Acu-Link.com,2013-09-19 15:17:00,
2013-09-19 11:32:00,66.4,65.8,30.09,South,180,0.0,-999.0,98,-99.99,,,0.00,Acu-Link.com,2013-09-19 15:32:00,
2013-09-19 11:47:00,68.5,68.0,30.09,WSW,247,0.0,-999.0,98,-99.99,,,0.00,Acu-Link.com,2013-09-19 15:47:00,
2013-09-19 12:02:00,71.1,70.5,30.09,South,180,0.0,-999.0,98,-99.99,,,0.00,Acu-Link.com,2013-09-19 16:02:00,
2013-09-19 12:17:00,70.9,70.3,30.08,West,270,0.0,-999.0,98,-99.99,,,0.00,Acu-Link.com,2013-09-19 16:17:00,
2013-09-19 12:33:00,71.4,70.8,30.09,West,270,2.7,-999.0,98,-99.99,,,0.00,Acu-Link.com,2013-09-19 16:33:00,
2013-09-19 12:48:00,74.1,73.5,30.08,SSW,202,0.0,-999.0,98,-99.99,,,0.00,Acu-Link.com,2013-09-19 16:48:00,
2013-09-19 13:03:00,74.1,73.5,30.07,ESE,112,0.0,-999.0,98,-99.99,,,0.00,Acu-Link.com,2013-09-19 17:03:00,
2013-09-19 13:18:00,75.6,75.0,30.06,West,270,2.7,-999.0,98,-99.99,,,0.00,Acu-Link.com,2013-09-19 17:18:00,
2013-09-19 13:33:00,74.8,74.2,30.06,WNW,292,0.0,-999.0,98,-99.99,,,0.00,Acu-Link.com,2013-09-19 17:33:00,
2013-09-19 13:49:00,75.7,75.1,30.05,NW,315,2.2,-999.0,98,-99.99,,,0.00,Acu-Link.com,2013-09-19 17:49:00,
2013-09-19 14:04:00,75.9,75.3,30.05,WSW,247,0.0,-999.0,98,-99.99,,,0.00,Acu-Link.com,2013-09-19 18:04:00,
2013-09-19 14:19:00,75.4,74.8,30.04,NW,315,2.7,-999.0,98,-99.99,,,0.00,Acu-Link.com,2013-09-19 18:19:00,
2013-09-19 14:34:00,75.9,75.3,30.03,West,270,0.0,-999.0,98,-99.99,,,0.00,Acu-Link.com,2013-09-19 18:34:00,
2013-09-19 14:50:00,76.3,75.7,30.03,SW,225,0.0,-999.0,98,-99.99,,,0.00,Acu-Link.com,2013-09-19 18:50:00,
2013-09-19 15:05:00,76.3,75.7,30.02,SSE,157,0.0,-999.0,98,-99.99,,,0.00,Acu-Link.com,2013-09-19 19:05:00,
2013-09-19 15:20:00,76.3,75.7,30.02,East,90,0.0,-999.0,98,-99.99,,,0.00,Acu-Link.com,2013-09-19 19:20:00,
2013-09-19 15:35:00,75.9,75.3,30.02,West,270,0.0,-999.0,98,-99.99,,,0.00,Acu-Link.com,2013-09-19 19:35:00,
2013-09-19 15:50:00,75.9,75.3,30.01,WSW,247,0.0,-999.0,98,-99.99,,,0.00,Acu-Link.com,2013-09-19 19:50:00,
2013-09-19 16:06:00,75.9,75.3,30.01,ESE,112,1.1,-999.0,98,-99.99,,,0.00,Acu-Link.com,2013-09-19 20:06:00,
2013-09-19 16:21:00,75.6,75.0,30.01,West,270,0.0,-999.0,98,-99.99,,,0.00,Acu-Link.com,2013-09-19 20:21:00,
2013-09-19 16:36:00,75.6,75.0,30.00,SW,225,0.0,-999.0,98,-99.99,,,0.00,Acu-Link.com,2013-09-19 20:36:00,
2013-09-19 16:51:00,75.4,74.8,30.00,SW,225,0.0,-999.0,98,-99.99,,,0.00,Acu-Link.com,2013-09-19 20:51:00,
2013-09-19 17:06:00,75.0,74.4,30.00,West,270,0.0,-999.0,98,-99.99,,,0.00,Acu-Link.com,2013-09-19 21:06:00,
2013-09-19 17:22:00,74.5,73.9,30.00,South,180,0.0,-999.0,98,-99.99,,,0.00,Acu-Link.com,2013-09-19 21:22:00,
2013-09-19 17:37:00,74.1,73.5,30.00,SSW,202,0.0,-999.0,98,-99.99,,,0.00,Acu-Link.com,2013-09-19 21:37:00,
2013-09-19 17:52:00,74.1,73.5,29.99,South,180,0.0,-999.0,98,-99.99,,,0.00,Acu-Link.com,2013-09-19 21:52:00,
2013-09-19 18:07:00,74.1,73.5,30.00,South,180,0.0,-999.0,98,-99.99,,,0.00,Acu-Link.com,2013-09-19 22:07:00,
2013-09-19 18:22:00,74.1,73.5,30.00,South,180,0.0,-999.0,98,-99.99,,,0.00,Acu-Link.com,2013-09-19 22:22:00,
2013-09-19 18:38:00,74.1,73.5,30.01,South,180,0.0,-999.0,98,-99.99,,,0.00,Acu-Link.com,2013-09-19 22:38:00,
2013-09-19 18:53:00,74.1,73.5,30.00,South,180,0.0,-999.0,98,-99.99,,,0.00,Acu-Link.com,2013-09-19 22:53:00,
2013-09-19 19:08:00,74.1,73.5,30.01,South,180,0.0,-999.0,98,-99.99,,,0.00,Acu-Link.com,2013-09-19 23:08:00,
2013-09-19 19:23:00,67.3,66.7,30.01,SSW,202,0.0,-999.0,98,-99.99,,,0.00,Acu-Link.com,2013-09-19 23:23:00,
2013-09-19 19:39:00,66.0,65.4,30.01,SW,225,0.0,-999.0,98,-99.99,,,0.00,Acu-Link.com,2013-09-19 23:39:00,
2013-09-19 19:54:00,64.8,64.2,30.02,West,270,0.0,-999.0,98,-99.99,,,0.00,Acu-Link.com,2013-09-19 23:54:00,
2013-09-19 20:09:00,63.9,63.3,30.03,SSW,202,0.0,-999.0,98,-99.99,,,0.00,Acu-Link.com,2013-09-20 00:09:00,
2013-09-19 20:24:00,63.0,62.4,30.03,WSW,247,0.0,-999.0,98,-99.99,,,0.00,Acu-Link.com,2013-09-20 00:24:00,
2013-09-19 20:39:00,62.1,61.5,30.03,SSW,202,0.0,-999.0,98,-99.99,,,0.00,Acu-Link.com,2013-09-20 00:39:00,
2013-09-19 20:54:00,61.3,60.8,30.04,SW,225,0.0,-999.0,98,-99.99,,,0.00,Acu-Link.com,2013-09-20 00:54:00,
2013-09-19 21:10:00,60.6,60.1,30.04,SSW,202,0.0,-999.0,98,-99.99,,,0.00,Acu-Link.com,2013-09-20 01:10:00,
2013-09-19 21:25:00,60.1,59.5,30.04,SW,225,0.0,-999.0,98,-99.99,,,0.00,Acu-Link.com,2013-09-20 01:25:00,
2013-09-19 21:40:00,59.4,58.8,30.04,SW,225,0.0,-999.0,98,-99.99,,,0.00,Acu-Link.com,2013-09-20 01:40:00,
2013-09-19 21:55:00,58.6,58.1,30.03,SW,225,0.0,-999.0,98,-99.99,,,0.00,Acu-Link.com,2013-09-20 01:55:00,
2013-09-19 22:11:00,58.1,57.5,30.03,SSW,202,0.0,-999.0,98,-99.99,,,0.00,Acu-Link.com,2013-09-20 02:11:00,
2013-09-19 22:26:00,57.7,57.2,30.03,SW,225,0.0,-999.0,98,-99.99,,,0.00,Acu-Link.com,2013-09-20 02:26:00,
2013-09-19 22:41:00,57.2,56.6,30.02,SSW,202,0.0,-999.0,98,-99.99,,,0.00,Acu-Link.com,2013-09-20 02:41:00,
2013-09-19 22:56:00,56.8,56.3,30.02,South,180,0.0,-999.0,98,-99.99,,,0.00,Acu-Link.com,2013-09-20 02:56:00,
2013-09-19 23:11:00,56.3,55.7,30.02,South,180,0.0,-999.0,98,-99.99,,,0.00,Acu-Link.com,2013-09-20 03:11:00,
2013-09-19 23:26:00,55.9,55.4,30.02,SW,225,0.0,-999.0,98,-99.99,,,0.00,Acu-Link.com,2013-09-20 03:26:00,
2013-09-19 23:42:00,55.4,54.8,30.02,SSW,202,0.0,-999.0,98,-99.99,,,0.00,Acu-Link.com,2013-09-20 03:42:00,
2013-09-19 23:57:00,55.4,54.8,30.02,SW,225,0.0,-999.0,98,-99.99,,,0.00,Acu-Link.com,2013-09-20 03:57:00,